sensor_id;sensor_type;location;lat;lon;timestamp;temperature;humidity
30244;DHT22;61465;53.652;9.792;2022-08-02T00:01:26;12.80;65.90
30244;DHT22;61465;53.652;9.792;2022-08-02T00:03:52;12.80;65.90
30244;DHT22;61465;53.652;9.792;2022-08-02T00:06:18;12.70;65.80
30244;DHT22;61465;53.652;9.792;2022-08-02T00:08:43;12.70;65.70
30244;DHT22;61465;53.652;9.792;2022-08-02T00:11:09;12.70;65.80
30244;DHT22;61465;53.652;9.792;2022-08-02T00:13:34;12.70;65.80
30244;DHT22;61465;53.652;9.792;2022-08-02T00:16:00;12.60;65.70
30244;DHT22;61465;53.652;9.792;2022-08-02T00:18:26;12.50;65.60
30244;DHT22;61465;53.652;9.792;2022-08-02T00:20:51;12.50;65.60
30244;DHT22;61465;53.652;9.792;2022-08-02T00:23:17;12.40;65.70
30244;DHT22;61465;53.652;9.792;2022-08-02T00:25:43;12.40;65.70
30244;DHT22;61465;53.652;9.792;2022-08-02T00:28:08;12.40;66.00
30244;DHT22;61465;53.652;9.792;2022-08-02T00:30:35;12.30;65.90
30244;DHT22;61465;53.652;9.792;2022-08-02T00:33:01;12.30;66.00
30244;DHT22;61465;53.652;9.792;2022-08-02T00:35:27;12.30;66.10
30244;DHT22;61465;53.652;9.792;2022-08-02T00:37:52;12.20;66.10
30244;DHT22;61465;53.652;9.792;2022-08-02T00:40:21;12.20;66.10
30244;DHT22;61465;53.652;9.792;2022-08-02T00:43:02;12.20;66.10
30244;DHT22;61465;53.652;9.792;2022-08-02T00:45:29;12.10;65.90
30244;DHT22;61465;53.652;9.792;2022-08-02T00:47:55;12.10;66.40
30244;DHT22;61465;53.652;9.792;2022-08-02T00:50:20;12.10;66.40
30244;DHT22;61465;53.652;9.792;2022-08-02T00:52:46;12.00;66.40
30244;DHT22;61465;53.652;9.792;2022-08-02T00:55:12;12.00;66.60
30244;DHT22;61465;53.652;9.792;2022-08-02T00:57:37;12.00;66.50
30244;DHT22;61465;53.652;9.792;2022-08-02T01:00:04;12.00;66.70
30244;DHT22;61465;53.652;9.792;2022-08-02T01:02:30;12.00;66.80
30244;DHT22;61465;53.652;9.792;2022-08-02T01:04:55;11.90;66.80
30244;DHT22;61465;53.652;9.792;2022-08-02T01:07:21;11.90;66.80
30244;DHT22;61465;53.652;9.792;2022-08-02T01:09:46;11.90;66.90
30244;DHT22;61465;53.652;9.792;2022-08-02T01:12:12;11.80;66.80
30244;DHT22;61465;53.652;9.792;2022-08-02T01:14:40;11.80;66.90
30244;DHT22;61465;53.652;9.792;2022-08-02T01:17:17;11.80;67.20
30244;DHT22;61465;53.652;9.792;2022-08-02T01:28:46;11.70;66.40
30244;DHT22;61465;53.652;9.792;2022-08-02T01:31:20;11.60;67.00
30244;DHT22;61465;53.652;9.792;2022-08-02T01:36:30;11.60;66.90
30244;DHT22;61465;53.652;9.792;2022-08-02T01:38:58;11.60;67.30
30244;DHT22;61465;53.652;9.792;2022-08-02T01:41:26;11.50;67.30
30244;DHT22;61465;53.652;9.792;2022-08-02T01:43:56;11.50;67.40
30244;DHT22;61465;53.652;9.792;2022-08-02T01:46:23;11.50;67.60
30244;DHT22;61465;53.652;9.792;2022-08-02T01:48:49;11.40;67.50
30244;DHT22;61465;53.652;9.792;2022-08-02T01:51:19;11.40;67.60
30244;DHT22;61465;53.652;9.792;2022-08-02T01:54:08;11.40;67.50
30244;DHT22;61465;53.652;9.792;2022-08-02T01:56:35;11.40;67.50
30244;DHT22;61465;53.652;9.792;2022-08-02T01:59:03;11.30;67.50
30244;DHT22;61465;53.652;9.792;2022-08-02T02:01:31;11.30;67.50
30244;DHT22;61465;53.652;9.792;2022-08-02T02:04:00;11.30;67.70
30244;DHT22;61465;53.652;9.792;2022-08-02T02:06:26;11.30;67.70
30244;DHT22;61465;53.652;9.792;2022-08-02T02:08:53;11.20;67.70
30244;DHT22;61465;53.652;9.792;2022-08-02T02:11:20;11.20;67.90
30244;DHT22;61465;53.652;9.792;2022-08-02T02:13:46;11.20;67.90
30244;DHT22;61465;53.652;9.792;2022-08-02T02:16:13;11.20;68.00
30244;DHT22;61465;53.652;9.792;2022-08-02T02:18:41;11.20;68.10
30244;DHT22;61465;53.652;9.792;2022-08-02T02:21:08;11.10;68.10
30244;DHT22;61465;53.652;9.792;2022-08-02T02:23:34;11.10;68.20
30244;DHT22;61465;53.652;9.792;2022-08-02T02:26:02;11.10;68.20
30244;DHT22;61465;53.652;9.792;2022-08-02T02:28:30;11.10;68.20
30244;DHT22;61465;53.652;9.792;2022-08-02T02:31:14;11.00;68.40
30244;DHT22;61465;53.652;9.792;2022-08-02T02:33:50;11.00;67.80
30244;DHT22;61465;53.652;9.792;2022-08-02T02:36:18;11.00;68.20
30244;DHT22;61465;53.652;9.792;2022-08-02T02:38:46;11.00;68.30
30244;DHT22;61465;53.652;9.792;2022-08-02T02:41:13;10.90;68.50
30244;DHT22;61465;53.652;9.792;2022-08-02T02:43:40;10.90;68.50
30244;DHT22;61465;53.652;9.792;2022-08-02T02:46:09;10.90;68.50
30244;DHT22;61465;53.652;9.792;2022-08-02T02:48:35;10.90;68.40
30244;DHT22;61465;53.652;9.792;2022-08-02T02:51:03;10.80;68.50
30244;DHT22;61465;53.652;9.792;2022-08-02T02:53:30;10.80;68.60
30244;DHT22;61465;53.652;9.792;2022-08-02T02:55:57;10.80;68.70
30244;DHT22;61465;53.652;9.792;2022-08-02T02:58:23;10.80;68.60
30244;DHT22;61465;53.652;9.792;2022-08-02T03:00:49;10.80;68.60
30244;DHT22;61465;53.652;9.792;2022-08-02T03:03:34;10.80;68.80
30244;DHT22;61465;53.652;9.792;2022-08-02T03:06:01;10.70;68.80
30244;DHT22;61465;53.652;9.792;2022-08-02T03:08:27;10.70;68.90
30244;DHT22;61465;53.652;9.792;2022-08-02T03:10:53;10.70;68.80
30244;DHT22;61465;53.652;9.792;2022-08-02T03:13:19;10.60;68.80
30244;DHT22;61465;53.652;9.792;2022-08-02T03:15:45;10.70;68.90
30244;DHT22;61465;53.652;9.792;2022-08-02T03:18:32;10.60;69.00
30244;DHT22;61465;53.652;9.792;2022-08-02T03:21:00;10.60;68.60
30244;DHT22;61465;53.652;9.792;2022-08-02T03:23:26;10.60;69.40
30244;DHT22;61465;53.652;9.792;2022-08-02T03:25:51;10.60;69.50
30244;DHT22;61465;53.652;9.792;2022-08-02T03:28:17;10.60;69.50
30244;DHT22;61465;53.652;9.792;2022-08-02T03:30:42;10.60;69.80
30244;DHT22;61465;53.652;9.792;2022-08-02T03:33:08;10.60;69.90
30244;DHT22;61465;53.652;9.792;2022-08-02T03:35:35;10.60;70.20
30244;DHT22;61465;53.652;9.792;2022-08-02T03:38:01;10.60;70.30
30244;DHT22;61465;53.652;9.792;2022-08-02T03:40:27;10.60;70.40
30244;DHT22;61465;53.652;9.792;2022-08-02T03:42:53;10.60;70.50
30244;DHT22;61465;53.652;9.792;2022-08-02T03:45:19;10.60;70.50
30244;DHT22;61465;53.652;9.792;2022-08-02T03:47:45;10.70;70.60
30244;DHT22;61465;53.652;9.792;2022-08-02T03:50:11;10.70;70.60
30244;DHT22;61465;53.652;9.792;2022-08-02T03:52:41;10.70;70.70
30244;DHT22;61465;53.652;9.792;2022-08-02T03:55:08;10.70;70.90
30244;DHT22;61465;53.652;9.792;2022-08-02T03:57:36;10.70;70.90
30244;DHT22;61465;53.652;9.792;2022-08-02T04:00:03;10.70;71.20
30244;DHT22;61465;53.652;9.792;2022-08-02T04:02:28;10.70;71.30
30244;DHT22;61465;53.652;9.792;2022-08-02T04:04:54;10.70;71.30
30244;DHT22;61465;53.652;9.792;2022-08-02T04:07:19;10.70;71.40
30244;DHT22;61465;53.652;9.792;2022-08-02T04:09:45;10.70;71.40
30244;DHT22;61465;53.652;9.792;2022-08-02T04:12:10;10.80;71.70
30244;DHT22;61465;53.652;9.792;2022-08-02T04:14:36;10.70;71.70
30244;DHT22;61465;53.652;9.792;2022-08-02T04:17:06;10.80;71.80
30244;DHT22;61465;53.652;9.792;2022-08-02T04:19:46;10.80;71.80
30244;DHT22;61465;53.652;9.792;2022-08-02T04:22:20;10.80;71.50
30244;DHT22;61465;53.652;9.792;2022-08-02T04:24:51;10.80;71.90
30244;DHT22;61465;53.652;9.792;2022-08-02T04:27:19;10.80;72.00
30244;DHT22;61465;53.652;9.792;2022-08-02T04:29:47;10.80;72.10
30244;DHT22;61465;53.652;9.792;2022-08-02T04:32:15;10.80;72.20
30244;DHT22;61465;53.652;9.792;2022-08-02T04:34:44;10.80;72.40
30244;DHT22;61465;53.652;9.792;2022-08-02T04:37:11;10.80;72.50
30244;DHT22;61465;53.652;9.792;2022-08-02T04:39:37;10.80;72.50
30244;DHT22;61465;53.652;9.792;2022-08-02T04:42:03;10.80;70.00
30244;DHT22;61465;53.652;9.792;2022-08-02T04:44:28;10.80;72.30
30244;DHT22;61465;53.652;9.792;2022-08-02T04:46:54;10.80;72.50
30244;DHT22;61465;53.652;9.792;2022-08-02T04:49:20;10.80;72.50
30244;DHT22;61465;53.652;9.792;2022-08-02T04:51:46;10.80;72.60
30244;DHT22;61465;53.652;9.792;2022-08-02T04:54:12;10.80;72.60
30244;DHT22;61465;53.652;9.792;2022-08-02T04:56:38;10.90;72.70
30244;DHT22;61465;53.652;9.792;2022-08-02T04:59:04;10.90;73.00
30244;DHT22;61465;53.652;9.792;2022-08-02T05:01:30;10.90;73.10
30244;DHT22;61465;53.652;9.792;2022-08-02T05:03:56;10.90;73.20
30244;DHT22;61465;53.652;9.792;2022-08-02T05:06:22;10.90;73.40
30244;DHT22;61465;53.652;9.792;2022-08-02T05:08:48;11.00;73.70
30244;DHT22;61465;53.652;9.792;2022-08-02T05:11:14;11.10;74.00
30244;DHT22;61465;53.652;9.792;2022-08-02T05:13:42;11.10;74.20
30244;DHT22;61465;53.652;9.792;2022-08-02T05:16:08;11.20;74.60
30244;DHT22;61465;53.652;9.792;2022-08-02T05:18:34;11.20;74.90
30244;DHT22;61465;53.652;9.792;2022-08-02T05:21:00;11.30;75.10
30244;DHT22;61465;53.652;9.792;2022-08-02T05:23:25;11.40;75.40
30244;DHT22;61465;53.652;9.792;2022-08-02T05:25:51;11.50;75.70
30244;DHT22;61465;53.652;9.792;2022-08-02T05:28:16;11.50;75.80
30244;DHT22;61465;53.652;9.792;2022-08-02T05:30:42;11.60;76.00
30244;DHT22;61465;53.652;9.792;2022-08-02T05:33:08;11.70;76.20
30244;DHT22;61465;53.652;9.792;2022-08-02T05:35:34;11.70;76.30
30244;DHT22;61465;53.652;9.792;2022-08-02T05:37:59;11.80;76.60
30244;DHT22;61465;53.652;9.792;2022-08-02T05:40:25;11.90;76.90
30244;DHT22;61465;53.652;9.792;2022-08-02T05:42:51;12.00;77.10
30244;DHT22;61465;53.652;9.792;2022-08-02T05:45:16;12.00;77.10
30244;DHT22;61465;53.652;9.792;2022-08-02T05:47:42;12.10;77.20
30244;DHT22;61465;53.652;9.792;2022-08-02T05:50:08;12.20;77.50
30244;DHT22;61465;53.652;9.792;2022-08-02T05:52:44;12.30;77.80
30244;DHT22;61465;53.652;9.792;2022-08-02T05:55:15;12.40;78.00
30244;DHT22;61465;53.652;9.792;2022-08-02T05:57:57;12.50;78.20
30244;DHT22;61465;53.652;9.792;2022-08-02T06:00:30;12.50;78.20
30244;DHT22;61465;53.652;9.792;2022-08-02T06:03:09;12.60;78.50
30244;DHT22;61465;53.652;9.792;2022-08-02T06:05:49;12.70;78.50
30244;DHT22;61465;53.652;9.792;2022-08-02T06:08:15;12.80;78.80
30244;DHT22;61465;53.652;9.792;2022-08-02T06:10:42;12.90;79.00
30244;DHT22;61465;53.652;9.792;2022-08-02T06:13:12;13.00;79.10
30244;DHT22;61465;53.652;9.792;2022-08-02T06:15:39;13.00;79.40
30244;DHT22;61465;53.652;9.792;2022-08-02T06:18:06;13.10;79.60
30244;DHT22;61465;53.652;9.792;2022-08-02T06:20:32;13.20;79.70
30244;DHT22;61465;53.652;9.792;2022-08-02T06:23:06;13.30;79.80
30244;DHT22;61465;53.652;9.792;2022-08-02T06:25:33;13.40;80.20
30244;DHT22;61465;53.652;9.792;2022-08-02T06:28:02;13.50;80.40
30244;DHT22;61465;53.652;9.792;2022-08-02T06:30:28;13.60;80.50
30244;DHT22;61465;53.652;9.792;2022-08-02T06:32:54;13.80;80.60
30244;DHT22;61465;53.652;9.792;2022-08-02T06:35:20;13.90;80.70
30244;DHT22;61465;53.652;9.792;2022-08-02T06:37:58;14.00;80.90
30244;DHT22;61465;53.652;9.792;2022-08-02T06:45:32;14.40;81.10
30244;DHT22;61465;53.652;9.792;2022-08-02T06:47:58;14.60;81.30
30244;DHT22;61465;53.652;9.792;2022-08-02T06:50:24;14.70;79.40
30244;DHT22;61465;53.652;9.792;2022-08-02T06:52:49;14.80;81.30
30244;DHT22;61465;53.652;9.792;2022-08-02T06:55:15;15.00;81.90
30244;DHT22;61465;53.652;9.792;2022-08-02T06:57:41;15.20;81.60
30244;DHT22;61465;53.652;9.792;2022-08-02T07:00:07;15.30;81.40
30244;DHT22;61465;53.652;9.792;2022-08-02T07:02:37;15.50;81.40
30244;DHT22;61465;53.652;9.792;2022-08-02T07:05:04;15.80;81.60
30244;DHT22;61465;53.652;9.792;2022-08-02T07:07:30;16.10;81.90
30244;DHT22;61465;53.652;9.792;2022-08-02T07:09:57;16.30;81.60
30244;DHT22;61465;53.652;9.792;2022-08-02T07:12:22;16.60;81.60
30244;DHT22;61465;53.652;9.792;2022-08-02T07:14:48;16.90;81.70
30244;DHT22;61465;53.652;9.792;2022-08-02T07:17:13;17.20;81.60
30244;DHT22;61465;53.652;9.792;2022-08-02T07:19:39;17.40;81.50
30244;DHT22;61465;53.652;9.792;2022-08-02T07:22:04;17.70;81.60
30244;DHT22;61465;53.652;9.792;2022-08-02T07:24:30;17.90;81.40
30244;DHT22;61465;53.652;9.792;2022-08-02T07:26:57;18.10;81.70
30244;DHT22;61465;53.652;9.792;2022-08-02T07:29:22;18.40;81.70
30244;DHT22;61465;53.652;9.792;2022-08-02T07:31:48;18.70;81.80
30244;DHT22;61465;53.652;9.792;2022-08-02T07:34:14;19.10;81.80
30244;DHT22;61465;53.652;9.792;2022-08-02T07:36:39;19.40;81.60
30244;DHT22;61465;53.652;9.792;2022-08-02T07:39:05;19.70;81.50
30244;DHT22;61465;53.652;9.792;2022-08-02T07:41:31;20.00;81.50
30244;DHT22;61465;53.652;9.792;2022-08-02T07:43:56;20.40;81.60
30244;DHT22;61465;53.652;9.792;2022-08-02T07:46:22;20.70;81.70
30244;DHT22;61465;53.652;9.792;2022-08-02T07:48:47;21.10;81.80
30244;DHT22;61465;53.652;9.792;2022-08-02T07:51:14;21.50;81.50
30244;DHT22;61465;53.652;9.792;2022-08-02T07:53:40;21.80;81.30
30244;DHT22;61465;53.652;9.792;2022-08-02T07:56:05;22.10;80.80
30244;DHT22;61465;53.652;9.792;2022-08-02T07:58:31;22.30;80.10
30244;DHT22;61465;53.652;9.792;2022-08-02T08:00:56;22.60;79.80
30244;DHT22;61465;53.652;9.792;2022-08-02T08:03:22;22.80;79.70
30244;DHT22;61465;53.652;9.792;2022-08-02T08:05:48;23.10;79.40
30244;DHT22;61465;53.652;9.792;2022-08-02T08:08:14;23.50;79.00
30244;DHT22;61465;53.652;9.792;2022-08-02T08:10:40;23.80;78.80
30244;DHT22;61465;53.652;9.792;2022-08-02T08:13:05;24.00;78.60
30244;DHT22;61465;53.652;9.792;2022-08-02T08:15:31;24.30;78.30
30244;DHT22;61465;53.652;9.792;2022-08-02T08:17:56;24.70;78.20
30244;DHT22;61465;53.652;9.792;2022-08-02T08:20:22;25.20;78.10
30244;DHT22;61465;53.652;9.792;2022-08-02T08:22:48;25.80;77.90
30244;DHT22;61465;53.652;9.792;2022-08-02T08:25:14;26.40;77.90
30244;DHT22;61465;53.652;9.792;2022-08-02T08:27:50;27.10;77.70
30244;DHT22;61465;53.652;9.792;2022-08-02T08:30:17;27.80;78.30
30244;DHT22;61465;53.652;9.792;2022-08-02T08:32:43;28.40;76.40
30244;DHT22;61465;53.652;9.792;2022-08-02T08:35:08;28.90;81.40
30244;DHT22;61465;53.652;9.792;2022-08-02T08:37:38;29.50;76.70
30244;DHT22;61465;53.652;9.792;2022-08-02T08:40:05;30.10;76.60
30244;DHT22;61465;53.652;9.792;2022-08-02T08:42:31;30.60;75.40
30244;DHT22;61465;53.652;9.792;2022-08-02T08:44:58;31.00;74.10
30244;DHT22;61465;53.652;9.792;2022-08-02T08:47:32;31.40;73.80
30244;DHT22;61465;53.652;9.792;2022-08-02T08:50:09;31.80;74.20
30244;DHT22;61465;53.652;9.792;2022-08-02T08:53:06;32.10;72.40
30244;DHT22;61465;53.652;9.792;2022-08-02T08:55:34;32.30;75.40
30244;DHT22;61465;53.652;9.792;2022-08-02T08:58:03;32.50;71.30
30244;DHT22;61465;53.652;9.792;2022-08-02T09:00:32;32.60;71.00
30244;DHT22;61465;53.652;9.792;2022-08-02T09:02:58;32.40;68.50
30244;DHT22;61465;53.652;9.792;2022-08-02T09:05:25;32.10;67.60
30244;DHT22;61465;53.652;9.792;2022-08-02T09:07:52;31.90;67.60
30244;DHT22;61465;53.652;9.792;2022-08-02T09:15:31;32.10;69.40
30244;DHT22;61465;53.652;9.792;2022-08-02T09:17:56;32.10;66.90
30244;DHT22;61465;53.652;9.792;2022-08-02T09:20:22;32.20;66.40
30244;DHT22;61465;53.652;9.792;2022-08-02T09:23:05;32.20;66.50
30244;DHT22;61465;53.652;9.792;2022-08-02T09:25:31;32.30;69.30
30244;DHT22;61465;53.652;9.792;2022-08-02T09:27:58;32.50;65.40
30244;DHT22;61465;53.652;9.792;2022-08-02T09:30:25;32.60;66.30
30244;DHT22;61465;53.652;9.792;2022-08-02T09:32:51;32.90;65.30
30244;DHT22;61465;53.652;9.792;2022-08-02T09:35:34;33.00;65.40
30244;DHT22;61465;53.652;9.792;2022-08-02T09:38:13;33.10;67.30
30244;DHT22;61465;53.652;9.792;2022-08-02T09:40:40;33.30;67.20
30244;DHT22;61465;53.652;9.792;2022-08-02T09:43:09;33.30;63.90
30244;DHT22;61465;53.652;9.792;2022-08-02T09:45:35;33.50;63.60
30244;DHT22;61465;53.652;9.792;2022-08-02T09:48:11;33.60;62.80
30244;DHT22;61465;53.652;9.792;2022-08-02T09:50:38;33.80;65.10
30244;DHT22;61465;53.652;9.792;2022-08-02T09:53:05;34.10;62.40
30244;DHT22;61465;53.652;9.792;2022-08-02T09:55:31;34.30;61.90
30244;DHT22;61465;53.652;9.792;2022-08-02T09:57:56;34.50;61.30
30244;DHT22;61465;53.652;9.792;2022-08-02T10:00:22;34.60;61.30
30244;DHT22;61465;53.652;9.792;2022-08-02T10:06:05;35.00;66.40
30244;DHT22;61465;53.652;9.792;2022-08-02T10:08:31;35.20;64.80
30244;DHT22;61465;53.652;9.792;2022-08-02T10:10:59;35.30;59.80
30244;DHT22;61465;53.652;9.792;2022-08-02T10:13:33;35.40;58.60
30244;DHT22;61465;53.652;9.792;2022-08-02T10:16:00;35.30;59.80
30244;DHT22;61465;53.652;9.792;2022-08-02T10:18:30;35.30;57.50
30244;DHT22;61465;53.652;9.792;2022-08-02T10:20:57;35.40;57.50
30244;DHT22;61465;53.652;9.792;2022-08-02T10:23:26;35.50;57.30
30244;DHT22;61465;53.652;9.792;2022-08-02T10:25:54;35.50;56.10
30244;DHT22;61465;53.652;9.792;2022-08-02T10:28:26;35.50;55.80
30244;DHT22;61465;53.652;9.792;2022-08-02T10:31:00;35.40;56.10
30244;DHT22;61465;53.652;9.792;2022-08-02T10:33:27;35.10;54.60
30244;DHT22;61465;53.652;9.792;2022-08-02T10:36:02;34.60;53.40
30244;DHT22;61465;53.652;9.792;2022-08-02T10:38:28;34.00;52.10
30244;DHT22;61465;53.652;9.792;2022-08-02T10:40:54;33.50;51.80
30244;DHT22;61465;53.652;9.792;2022-08-02T10:56:57;31.30;50.90
30244;DHT22;61465;53.652;9.792;2022-08-02T10:59:32;31.00;49.90
30244;DHT22;61465;53.652;9.792;2022-08-02T11:01:59;30.60;50.60
30244;DHT22;61465;53.652;9.792;2022-08-02T11:07:19;30.10;50.90
30244;DHT22;61465;53.652;9.792;2022-08-02T11:09:48;29.80;48.90
30244;DHT22;61465;53.652;9.792;2022-08-02T11:12:19;29.60;48.80
30244;DHT22;61465;53.652;9.792;2022-08-02T11:14:59;29.40;48.70
30244;DHT22;61465;53.652;9.792;2022-08-02T11:17:25;29.20;48.60
30244;DHT22;61465;53.652;9.792;2022-08-02T11:22:38;28.90;49.40
30244;DHT22;61465;53.652;9.792;2022-08-02T11:30:17;28.50;48.80
30244;DHT22;61465;53.652;9.792;2022-08-02T11:32:43;28.40;48.30
30244;DHT22;61465;53.652;9.792;2022-08-02T11:35:08;28.40;48.40
30244;DHT22;61465;53.652;9.792;2022-08-02T11:37:36;28.30;47.60
30244;DHT22;61465;53.652;9.792;2022-08-02T11:40:22;28.20;47.90
30244;DHT22;61465;53.652;9.792;2022-08-02T11:42:48;28.20;48.60
30244;DHT22;61465;53.652;9.792;2022-08-02T11:45:24;28.10;47.20
30244;DHT22;61465;53.652;9.792;2022-08-02T11:47:51;28.10;47.60
30244;DHT22;61465;53.652;9.792;2022-08-02T11:50:18;28.00;46.90
30244;DHT22;61465;53.652;9.792;2022-08-02T11:52:45;28.00;47.00
30244;DHT22;61465;53.652;9.792;2022-08-02T11:55:11;28.00;47.00
30244;DHT22;61465;53.652;9.792;2022-08-02T11:57:38;27.90;47.10
30244;DHT22;61465;53.652;9.792;2022-08-02T12:00:16;27.90;47.20
30244;DHT22;61465;53.652;9.792;2022-08-02T12:02:46;27.90;47.60
30244;DHT22;61465;53.652;9.792;2022-08-02T12:05:16;27.80;46.80
30244;DHT22;61465;53.652;9.792;2022-08-02T12:07:44;27.80;46.90
30244;DHT22;61465;53.652;9.792;2022-08-02T12:10:14;27.80;46.50
30244;DHT22;61465;53.652;9.792;2022-08-02T12:12:53;27.80;46.40
30244;DHT22;61465;53.652;9.792;2022-08-02T12:15:38;27.70;46.80
30244;DHT22;61465;53.652;9.792;2022-08-02T12:18:18;27.70;46.90
30244;DHT22;61465;53.652;9.792;2022-08-02T12:21:03;27.60;46.60
30244;DHT22;61465;53.652;9.792;2022-08-02T12:23:42;27.60;46.30
30244;DHT22;61465;53.652;9.792;2022-08-02T12:26:08;27.60;46.50
30244;DHT22;61465;53.652;9.792;2022-08-02T12:28:37;27.50;45.80
30244;DHT22;61465;53.652;9.792;2022-08-02T12:31:04;27.50;45.30
30244;DHT22;61465;53.652;9.792;2022-08-02T12:33:43;27.40;45.20
30244;DHT22;61465;53.652;9.792;2022-08-02T12:36:17;27.30;46.60
30244;DHT22;61465;53.652;9.792;2022-08-02T12:38:59;27.30;45.70
30244;DHT22;61465;53.652;9.792;2022-08-02T12:41:26;27.30;46.00
30244;DHT22;61465;53.652;9.792;2022-08-02T12:43:54;27.30;45.20
30244;DHT22;61465;53.652;9.792;2022-08-02T12:46:21;27.20;44.90
30244;DHT22;61465;53.652;9.792;2022-08-02T12:48:47;27.10;44.70
30244;DHT22;61465;53.652;9.792;2022-08-02T12:51:40;27.10;44.40
30244;DHT22;61465;53.652;9.792;2022-08-02T12:54:24;27.10;45.50
30244;DHT22;61465;53.652;9.792;2022-08-02T12:56:51;27.00;45.20
30244;DHT22;61465;53.652;9.792;2022-08-02T12:59:33;27.00;44.40
30244;DHT22;61465;53.652;9.792;2022-08-02T13:02:06;27.00;45.00
30244;DHT22;61465;53.652;9.792;2022-08-02T13:04:32;27.00;44.70
30244;DHT22;61465;53.652;9.792;2022-08-02T13:06:58;27.00;44.00
30244;DHT22;61465;53.652;9.792;2022-08-02T13:09:24;27.00;43.90
30244;DHT22;61465;53.652;9.792;2022-08-02T13:11:49;27.00;44.00
30244;DHT22;61465;53.652;9.792;2022-08-02T13:14:15;27.00;44.10
30244;DHT22;61465;53.652;9.792;2022-08-02T13:16:43;27.10;44.30
30244;DHT22;61465;53.652;9.792;2022-08-02T13:19:09;27.10;44.40
30244;DHT22;61465;53.652;9.792;2022-08-02T13:21:35;27.10;44.10
30244;DHT22;61465;53.652;9.792;2022-08-02T13:24:00;27.20;44.20
30244;DHT22;61465;53.652;9.792;2022-08-02T13:26:26;27.20;44.10
30244;DHT22;61465;53.652;9.792;2022-08-02T13:28:52;27.30;44.20
30244;DHT22;61465;53.652;9.792;2022-08-02T13:31:17;27.30;44.20
30244;DHT22;61465;53.652;9.792;2022-08-02T13:33:43;27.30;44.30
30244;DHT22;61465;53.652;9.792;2022-08-02T13:36:08;27.40;44.40
30244;DHT22;61465;53.652;9.792;2022-08-02T13:38:34;27.30;44.50
30244;DHT22;61465;53.652;9.792;2022-08-02T13:41:00;27.40;44.50
30244;DHT22;61465;53.652;9.792;2022-08-02T13:43:38;27.40;44.20
30244;DHT22;61465;53.652;9.792;2022-08-02T13:46:04;27.40;44.30
30244;DHT22;61465;53.652;9.792;2022-08-02T13:48:31;27.40;44.20
30244;DHT22;61465;53.652;9.792;2022-08-02T13:50:56;27.40;44.20
30244;DHT22;61465;53.652;9.792;2022-08-02T13:53:22;27.40;44.20
30244;DHT22;61465;53.652;9.792;2022-08-02T13:55:48;27.40;44.30
30244;DHT22;61465;53.652;9.792;2022-08-02T13:58:13;27.40;44.50
30244;DHT22;61465;53.652;9.792;2022-08-02T14:00:39;27.40;44.60
30244;DHT22;61465;53.652;9.792;2022-08-02T14:03:06;27.40;44.60
30244;DHT22;61465;53.652;9.792;2022-08-02T14:05:35;27.40;44.70
30244;DHT22;61465;53.652;9.792;2022-08-02T14:08:01;27.40;44.80
30244;DHT22;61465;53.652;9.792;2022-08-02T14:10:27;27.50;44.70
30244;DHT22;61465;53.652;9.792;2022-08-02T14:12:53;27.50;44.80
30244;DHT22;61465;53.652;9.792;2022-08-02T14:15:19;27.50;44.80
30244;DHT22;61465;53.652;9.792;2022-08-02T14:17:45;27.50;44.80
30244;DHT22;61465;53.652;9.792;2022-08-02T14:20:12;27.50;44.80
30244;DHT22;61465;53.652;9.792;2022-08-02T14:22:38;27.50;45.00
30244;DHT22;61465;53.652;9.792;2022-08-02T14:25:04;27.50;45.00
30244;DHT22;61465;53.652;9.792;2022-08-02T14:27:30;27.50;45.10
30244;DHT22;61465;53.652;9.792;2022-08-02T14:29:56;27.50;45.20
30244;DHT22;61465;53.652;9.792;2022-08-02T14:32:22;27.50;45.20
30244;DHT22;61465;53.652;9.792;2022-08-02T14:34:47;27.50;45.10
30244;DHT22;61465;53.652;9.792;2022-08-02T14:37:13;27.60;45.30
30244;DHT22;61465;53.652;9.792;2022-08-02T14:39:39;27.60;45.40
30244;DHT22;61465;53.652;9.792;2022-08-02T14:42:05;27.60;45.40
30244;DHT22;61465;53.652;9.792;2022-08-02T14:44:32;27.60;45.60
30244;DHT22;61465;53.652;9.792;2022-08-02T14:46:57;27.60;45.40
30244;DHT22;61465;53.652;9.792;2022-08-02T14:49:23;27.70;45.40
30244;DHT22;61465;53.652;9.792;2022-08-02T14:51:48;27.70;45.50
30244;DHT22;61465;53.652;9.792;2022-08-02T14:54:14;27.70;45.50
30244;DHT22;61465;53.652;9.792;2022-08-02T14:56:40;27.70;45.60
30244;DHT22;61465;53.652;9.792;2022-08-02T14:59:05;27.70;45.30
30244;DHT22;61465;53.652;9.792;2022-08-02T15:01:31;27.70;45.10
30244;DHT22;61465;53.652;9.792;2022-08-02T15:03:57;27.60;45.00
30244;DHT22;61465;53.652;9.792;2022-08-02T15:06:23;27.60;45.20
30244;DHT22;61465;53.652;9.792;2022-08-02T15:08:49;27.60;45.20
30244;DHT22;61465;53.652;9.792;2022-08-02T15:11:14;27.60;45.20
30244;DHT22;61465;53.652;9.792;2022-08-02T15:13:40;27.60;45.50
30244;DHT22;61465;53.652;9.792;2022-08-02T15:16:05;27.60;45.60
30244;DHT22;61465;53.652;9.792;2022-08-02T15:18:31;27.60;45.50
30244;DHT22;61465;53.652;9.792;2022-08-02T15:20:57;27.60;45.70
30244;DHT22;61465;53.652;9.792;2022-08-02T15:23:23;27.60;46.20
30244;DHT22;61465;53.652;9.792;2022-08-02T15:25:49;27.50;45.70
30244;DHT22;61465;53.652;9.792;2022-08-02T15:28:14;27.50;45.30
30244;DHT22;61465;53.652;9.792;2022-08-02T15:30:40;27.40;45.40
30244;DHT22;61465;53.652;9.792;2022-08-02T15:33:05;27.40;45.40
30244;DHT22;61465;53.652;9.792;2022-08-02T15:35:32;27.30;45.60
30244;DHT22;61465;53.652;9.792;2022-08-02T15:37:57;27.30;45.70
30244;DHT22;61465;53.652;9.792;2022-08-02T15:40:23;27.30;46.20
30244;DHT22;61465;53.652;9.792;2022-08-02T15:42:49;27.30;45.50
30244;DHT22;61465;53.652;9.792;2022-08-02T15:45:16;27.30;45.50
30244;DHT22;61465;53.652;9.792;2022-08-02T15:47:43;27.20;45.50
30244;DHT22;61465;53.652;9.792;2022-08-02T15:50:09;27.10;45.60
30244;DHT22;61465;53.652;9.792;2022-08-02T15:52:35;27.20;45.70
30244;DHT22;61465;53.652;9.792;2022-08-02T15:55:00;27.20;45.70
30244;DHT22;61465;53.652;9.792;2022-08-02T15:57:26;27.20;45.80
30244;DHT22;61465;53.652;9.792;2022-08-02T15:59:52;27.20;46.00
30244;DHT22;61465;53.652;9.792;2022-08-02T16:02:19;27.20;46.80
30244;DHT22;61465;53.652;9.792;2022-08-02T16:04:45;27.20;46.80
30244;DHT22;61465;53.652;9.792;2022-08-02T16:07:11;27.20;46.60
30244;DHT22;61465;53.652;9.792;2022-08-02T16:09:36;27.20;46.60
30244;DHT22;61465;53.652;9.792;2022-08-02T16:12:02;27.20;46.60
30244;DHT22;61465;53.652;9.792;2022-08-02T16:14:28;27.20;46.60
30244;DHT22;61465;53.652;9.792;2022-08-02T16:16:54;27.20;46.50
30244;DHT22;61465;53.652;9.792;2022-08-02T16:19:19;27.10;46.50
30244;DHT22;61465;53.652;9.792;2022-08-02T16:21:45;27.20;46.90
30244;DHT22;61465;53.652;9.792;2022-08-02T16:24:12;27.10;47.60